Aviation Digital Data Service (ADDS)

Output produced by TAFs form (1900 UTC 19 September 2017)
found at http://www.aviationweather.gov/adds/tafs/
 
METAR text: RJNY 191344Z 23008KT 9999 FEW025 BKN180 BKN/// 22/18 Q1010 RMK 1CU025 5AC180 A2983
Conditions at: RJNY (SHIZUHAMA (JASDF, JP) observed 1344 UTC 19 September 2017
Temperature: 22.0°C (72°F)
Dewpoint: 18.0°C (64°F) [RH = 78%]
Pressure (altimeter): 29.82 inches Hg (1010.0 mb)
Winds: from the SW (230 degrees) at 9 MPH (8 knots; 4.2 m/s)
Visibility: 6 or more miles (10+ km)
Ceiling: 18000 feet AGL
Clouds: few clouds at 2500 feet AGL
broken clouds at 18000 feet AGL
Weather: no significant weather observed at this time